Time,TemperatureF,DewpointF,PressureIn,WindDirection,WindDirectionDegrees,WindSpeedMPH,WindSpeedGustMPH,Humidity,HourlyPrecipIn,Conditions,Clouds,dailyrainin,SoftwareType,DateUTC
2013-05-26 00:05:00,37.9,36.0,29.72,NNE,23,6.0,14.0,94,0.06,,,0.83,weatherlink.com 1.10,2013-05-26 04:05:00,
2013-05-26 00:20:00,37.8,36.0,29.71,NNW,336,3.0,15.0,94,0.06,,,0.85,weatherlink.com 1.10,2013-05-26 04:20:00,
2013-05-26 00:35:00,38.1,37.0,29.71,NE,49,9.0,12.0,94,0.07,,,0.02,weatherlink.com 1.10,2013-05-26 04:35:00,
2013-05-26 00:50:00,38.1,37.0,29.71,North,352,3.0,14.0,94,0.07,,,0.04,weatherlink.com 1.10,2013-05-26 04:50:00,
2013-05-26 01:05:00,38.0,37.0,29.70,NNE,16,5.0,13.0,94,0.10,,,0.08,weatherlink.com 1.10,2013-05-26 05:05:00,
2013-05-26 01:20:00,38.3,37.0,29.70,ENE,60,5.0,13.0,94,0.11,,,0.11,weatherlink.com 1.10,2013-05-26 05:20:00,
2013-05-26 01:35:00,38.9,37.0,29.70,NE,47,3.0,9.0,94,0.10,,,0.12,weatherlink.com 1.10,2013-05-26 05:35:00,
2013-05-26 01:50:00,39.3,38.0,29.70,NNE,29,7.0,10.0,94,0.09,,,0.13,weatherlink.com 1.10,2013-05-26 05:50:00,
2013-05-26 02:05:00,39.6,38.0,29.69,NNE,27,9.0,10.0,94,0.06,,,0.14,weatherlink.com 1.10,2013-05-26 06:05:00,
2013-05-26 02:20:00,39.8,38.0,29.69,NNE,23,4.0,11.0,94,0.04,,,0.15,weatherlink.com 1.10,2013-05-26 06:20:00,
2013-05-26 02:35:00,40.0,39.0,29.68,NW,322,6.0,11.0,94,0.04,,,0.16,weatherlink.com 1.10,2013-05-26 06:35:00,
2013-05-26 02:50:00,40.1,39.0,29.68,NNE,18,1.0,8.0,94,0.03,,,0.16,weatherlink.com 1.10,2013-05-26 06:50:00,
2013-05-26 03:05:00,40.2,39.0,29.69,NNW,337,4.0,11.0,94,0.03,,,0.17,weatherlink.com 1.10,2013-05-26 07:05:00,
2013-05-26 03:20:00,40.3,39.0,29.69,NE,37,9.0,10.0,94,0.03,,,0.18,weatherlink.com 1.10,2013-05-26 07:20:00,
2013-05-26 03:35:00,40.3,39.0,29.69,North,2,2.0,7.0,94,0.03,,,0.19,weatherlink.com 1.10,2013-05-26 07:35:00,
2013-05-26 03:50:00,40.2,39.0,29.69,NNW,345,2.0,11.0,94,0.07,,,0.23,weatherlink.com 1.10,2013-05-26 07:50:00,
2013-05-26 04:05:00,39.8,38.0,29.69,NE,39,10.0,17.0,94,0.09,,,0.26,weatherlink.com 1.10,2013-05-26 08:05:00,
2013-05-26 04:20:00,39.8,38.0,29.70,NE,48,7.0,14.0,94,0.10,,,0.28,weatherlink.com 1.10,2013-05-26 08:20:00,
2013-05-26 04:35:00,39.7,38.0,29.70,NE,47,3.0,12.0,94,0.11,,,0.30,weatherlink.com 1.10,2013-05-26 08:35:00,
2013-05-26 04:50:00,39.7,38.0,29.71,West,268,7.0,9.0,94,0.08,,,0.31,weatherlink.com 1.10,2013-05-26 08:50:00,
2013-05-26 05:05:00,39.9,38.0,29.71,NNE,31,5.0,13.0,94,0.06,,,0.32,weatherlink.com 1.10,2013-05-26 09:05:00,
2013-05-26 05:20:00,40.1,39.0,29.71,North,10,2.0,13.0,94,0.04,,,0.32,weatherlink.com 1.10,2013-05-26 09:20:00,
2013-05-26 05:35:00,40.4,39.0,29.72,WNW,283,7.0,10.0,94,0.01,,,0.32,weatherlink.com 1.10,2013-05-26 09:35:00,
2013-05-26 05:50:00,40.6,39.0,29.72,NE,42,5.0,14.0,93,0.01,,,0.32,weatherlink.com 1.10,2013-05-26 09:50:00,
2013-05-26 06:05:00,40.7,39.0,29.73,NNE,14,4.0,12.0,94,0.02,,,0.34,weatherlink.com 1.10,2013-05-26 10:05:00,
2013-05-26 06:20:00,40.8,39.0,29.73,North,8,1.0,21.0,93,0.04,,,0.36,weatherlink.com 1.10,2013-05-26 10:20:00,
2013-05-26 06:35:00,40.9,39.0,29.74,NW,310,4.0,12.0,94,0.04,,,0.36,weatherlink.com 1.10,2013-05-26 10:35:00,
2013-05-26 06:50:00,41.1,40.0,29.74,NE,37,5.0,14.0,94,0.04,,,0.36,weatherlink.com 1.10,2013-05-26 10:50:00,
2013-05-26 07:05:00,41.2,39.0,29.75,NNE,24,5.0,11.0,93,0.02,,,0.36,weatherlink.com 1.10,2013-05-26 11:05:00,
2013-05-26 07:21:00,41.3,40.0,29.76,West,270,7.0,16.0,93,0.00,,,0.36,weatherlink.com 1.10,2013-05-26 11:21:00,
2013-05-26 07:36:00,42.0,40.0,29.76,NNW,342,7.0,20.0,93,0.00,,,0.36,weatherlink.com 1.10,2013-05-26 11:36:00,
2013-05-26 07:51:00,42.5,40.0,29.76,NNE,13,6.0,15.0,92,0.00,,,0.36,weatherlink.com 1.10,2013-05-26 11:51:00,
2013-05-26 08:06:00,42.6,41.0,29.76,NNE,16,13.0,15.0,92,0.00,,,0.36,weatherlink.com 1.10,2013-05-26 12:06:00,
2013-05-26 08:21:00,43.1,41.0,29.77,North,358,6.0,14.0,91,0.00,,,0.36,weatherlink.com 1.10,2013-05-26 12:21:00,
2013-05-26 08:36:00,44.7,42.0,29.77,NNE,32,6.0,12.0,90,0.00,,,0.36,weatherlink.com 1.10,2013-05-26 12:36:00,
2013-05-26 08:51:00,46.4,43.0,29.77,NNE,16,9.0,22.0,86,0.00,,,0.36,weatherlink.com 1.10,2013-05-26 12:51:00,
2013-05-26 09:06:00,46.8,42.0,29.78,NNW,339,12.0,21.0,82,0.00,,,0.36,weatherlink.com 1.10,2013-05-26 13:06:00,
2013-05-26 09:21:00,47.1,41.0,29.79,NE,48,15.0,21.0,80,0.00,,,0.36,weatherlink.com 1.10,2013-05-26 13:21:00,
2013-05-26 09:36:00,48.4,42.0,29.79,NE,45,8.0,27.0,79,0.00,,,0.36,weatherlink.com 1.10,2013-05-26 13:36:00,
2013-05-26 09:51:00,48.6,41.0,29.80,West,266,5.0,20.0,76,0.00,,,0.36,weatherlink.com 1.10,2013-05-26 13:51:00,
2013-05-26 10:06:00,49.3,42.0,29.79,ENE,62,4.0,17.0,76,0.00,,,0.36,weatherlink.com 1.10,2013-05-26 14:06:00,
2013-05-26 10:21:00,51.5,42.0,29.79,West,280,5.0,12.0,71,0.00,,,0.36,weatherlink.com 1.10,2013-05-26 14:21:00,
2013-05-26 10:36:00,52.1,43.0,29.80,ENE,64,18.0,25.0,70,0.00,,,0.36,weatherlink.com 1.10,2013-05-26 14:36:00,
2013-05-26 10:51:00,52.0,41.0,29.81,East,85,8.0,22.0,67,0.00,,,0.36,weatherlink.com 1.10,2013-05-26 14:51:00,
2013-05-26 11:06:00,50.8,40.0,29.81,ENE,67,13.0,29.0,67,0.00,,,0.36,weatherlink.com 1.10,2013-05-26 15:06:00,
2013-05-26 11:21:00,51.3,40.0,29.82,North,7,13.0,16.0,66,0.00,,,0.36,weatherlink.com 1.10,2013-05-26 15:21:00,
2013-05-26 11:36:00,51.7,41.0,29.82,NE,37,13.0,19.0,68,0.00,,,0.36,weatherlink.com 1.10,2013-05-26 15:36:00,
2013-05-26 11:51:00,53.3,41.0,29.82,East,85,8.0,24.0,64,0.00,,,0.36,weatherlink.com 1.10,2013-05-26 15:51:00,
2013-05-26 12:06:00,54.0,42.0,29.82,NNE,25,16.0,23.0,64,0.00,,,0.36,weatherlink.com 1.10,2013-05-26 16:06:00,
2013-05-26 12:21:00,54.7,42.0,29.83,North,6,13.0,21.0,63,0.00,,,0.36,weatherlink.com 1.10,2013-05-26 16:21:00,
2013-05-26 12:36:00,53.9,41.0,29.82,ENE,67,11.0,19.0,63,0.00,,,0.36,weatherlink.com 1.10,2013-05-26 16:36:00,
2013-05-26 12:51:00,54.5,42.0,29.83,NW,320,6.0,21.0,62,0.00,,,0.36,weatherlink.com 1.10,2013-05-26 16:51:00,
2013-05-26 13:06:00,54.7,41.0,29.83,NW,324,4.0,23.0,60,0.00,,,0.36,weatherlink.com 1.10,2013-05-26 17:06:00,
2013-05-26 13:21:00,55.1,41.0,29.84,NE,38,5.0,21.0,59,0.00,,,0.36,weatherlink.com 1.10,2013-05-26 17:21:00,
2013-05-26 13:36:00,54.8,41.0,29.84,NNW,334,13.0,21.0,61,0.00,,,0.36,weatherlink.com 1.10,2013-05-26 17:36:00,
2013-05-26 13:51:00,54.7,41.0,29.85,NNE,21,19.0,20.0,60,0.00,,,0.36,weatherlink.com 1.10,2013-05-26 17:51:00,
2013-05-26 14:06:00,54.8,41.0,29.86,ENE,59,4.0,28.0,60,0.00,,,0.36,weatherlink.com 1.10,2013-05-26 18:06:00,
2013-05-26 14:21:00,54.2,41.0,29.86,NE,40,5.0,26.0,61,0.00,,,0.36,weatherlink.com 1.10,2013-05-26 18:21:00,
2013-05-26 14:36:00,53.5,41.0,29.86,WSW,249,7.0,22.0,62,0.00,,,0.36,weatherlink.com 1.10,2013-05-26 18:36:00,
2013-05-26 14:51:00,54.2,41.0,29.86,West,274,18.0,23.0,61,0.00,,,0.36,weatherlink.com 1.10,2013-05-26 18:51:00,
2013-05-26 15:07:00,53.8,41.0,29.87,West,260,3.0,17.0,62,0.00,,,0.36,weatherlink.com 1.10,2013-05-26 19:07:00,
2013-05-26 15:22:00,54.3,41.0,29.88,West,277,7.0,22.0,62,0.00,,,0.36,weatherlink.com 1.10,2013-05-26 19:22:00,
2013-05-26 15:37:00,56.3,41.0,29.88,NE,41,15.0,26.0,57,0.00,,,0.36,weatherlink.com 1.10,2013-05-26 19:37:00,
2013-05-26 15:52:00,56.4,42.0,29.89,NNE,26,8.0,23.0,60,0.00,,,0.36,weatherlink.com 1.10,2013-05-26 19:52:00,
2013-05-26 16:07:00,55.7,41.0,29.90,NE,52,11.0,18.0,59,0.00,,,0.36,weatherlink.com 1.10,2013-05-26 20:07:00,
2013-05-26 16:22:00,55.6,41.0,29.90,NE,38,2.0,19.0,59,0.00,,,0.36,weatherlink.com 1.10,2013-05-26 20:22:00,
2013-05-26 16:37:00,55.3,41.0,29.90,NE,37,8.0,19.0,59,0.00,,,0.36,weatherlink.com 1.10,2013-05-26 20:37:00,
2013-05-26 16:52:00,56.2,41.0,29.91,NE,51,9.0,21.0,57,0.00,,,0.36,weatherlink.com 1.10,2013-05-26 20:52:00,
2013-05-26 17:07:00,55.9,42.0,29.93,ENE,75,17.0,23.0,59,0.00,,,0.36,weatherlink.com 1.10,2013-05-26 21:07:00,
2013-05-26 17:22:00,55.5,42.0,29.93,North,353,7.0,15.0,60,0.00,,,0.36,weatherlink.com 1.10,2013-05-26 21:22:00,
2013-05-26 17:37:00,55.4,42.0,29.93,NNW,346,13.0,17.0,61,0.00,,,0.36,weatherlink.com 1.10,2013-05-26 21:37:00,
2013-05-26 17:52:00,55.2,42.0,29.93,NNW,332,4.0,15.0,61,0.00,,,0.36,weatherlink.com 1.10,2013-05-26 21:52:00,
2013-05-26 18:07:00,54.7,42.0,29.95,NE,49,7.0,13.0,63,0.00,,,0.36,weatherlink.com 1.10,2013-05-26 22:07:00,
2013-05-26 18:22:00,54.6,41.0,29.95,NNW,345,2.0,19.0,60,0.00,,,0.36,weatherlink.com 1.10,2013-05-26 22:22:00,
2013-05-26 18:37:00,54.5,41.0,29.96,North,10,8.0,13.0,61,0.00,,,0.36,weatherlink.com 1.10,2013-05-26 22:37:00,
2013-05-26 18:52:00,53.9,41.0,29.96,NNE,33,6.0,20.0,63,0.00,,,0.36,weatherlink.com 1.10,2013-05-26 22:52:00,
2013-05-26 19:07:00,53.4,41.0,29.97,ENE,63,9.0,15.0,64,0.00,,,0.36,weatherlink.com 1.10,2013-05-26 23:07:00,
2013-05-26 19:22:00,52.9,41.0,29.98,NNE,23,4.0,21.0,65,0.00,,,0.36,weatherlink.com 1.10,2013-05-26 23:22:00,
2013-05-26 19:37:00,52.5,42.0,29.99,NE,38,5.0,12.0,67,0.00,,,0.36,weatherlink.com 1.10,2013-05-26 23:37:00,
2013-05-26 19:52:00,52.2,41.0,29.99,WNW,301,8.0,19.0,67,0.00,,,0.36,weatherlink.com 1.10,2013-05-26 23:52:00,
2013-05-26 20:07:00,51.6,41.0,29.99,WNW,300,4.0,16.0,67,0.00,,,0.36,weatherlink.com 1.10,2013-05-27 00:07:00,
2013-05-26 20:22:00,51.1,41.0,30.00,NNE,15,4.0,19.0,68,0.00,,,0.36,weatherlink.com 1.10,2013-05-27 00:22:00,
2013-05-26 20:37:00,51.1,41.0,30.00,NNE,23,15.0,18.0,68,0.00,,,0.36,weatherlink.com 1.10,2013-05-27 00:37:00,
2013-05-26 20:52:00,50.7,41.0,30.01,NW,319,6.0,21.0,69,0.00,,,0.36,weatherlink.com 1.10,2013-05-27 00:52:00,
2013-05-26 21:07:00,50.4,41.0,30.01,NNE,29,7.0,17.0,69,0.00,,,0.36,weatherlink.com 1.10,2013-05-27 01:07:00,
2013-05-26 21:22:00,50.2,41.0,30.02,NNE,29,0.0,14.0,70,0.00,,,0.36,weatherlink.com 1.10,2013-05-27 01:22:00,
2013-05-26 21:37:00,49.7,41.0,30.03,NW,318,3.0,7.0,71,0.00,,,0.36,weatherlink.com 1.10,2013-05-27 01:37:00,
2013-05-26 21:52:00,49.4,41.0,30.03,WNW,296,3.0,9.0,72,0.00,,,0.36,weatherlink.com 1.10,2013-05-27 01:52:00,
2013-05-26 22:07:00,48.5,41.0,30.03,WSW,258,0.0,4.0,75,0.00,,,0.36,weatherlink.com 1.10,2013-05-27 02:07:00,
2013-05-26 22:22:00,47.2,41.0,30.03,West,265,3.0,5.0,78,0.00,,,0.36,weatherlink.com 1.10,2013-05-27 02:22:00,
2013-05-26 22:37:00,47.5,41.0,30.04,South,176,4.0,7.0,77,0.00,,,0.36,weatherlink.com 1.10,2013-05-27 02:37:00,
2013-05-26 22:52:00,47.4,41.0,30.04,WSW,241,1.0,5.0,77,0.00,,,0.36,weatherlink.com 1.10,2013-05-27 02:52:00,
2013-05-26 23:07:00,46.7,41.0,30.04,WNW,282,0.0,3.0,79,0.00,,,0.36,weatherlink.com 1.10,2013-05-27 03:07:00,
2013-05-26 23:22:00,45.0,40.0,30.04,West,281,2.0,3.0,83,0.00,,,0.36,weatherlink.com 1.10,2013-05-27 03:22:00,
2013-05-26 23:37:00,44.5,40.0,30.04,SW,230,1.0,2.0,84,0.00,,,0.36,weatherlink.com 1.10,2013-05-27 03:37:00,
2013-05-26 23:52:00,44.1,41.0,30.05,South,176,2.0,4.0,87,0.00,,,0.36,weatherlink.com 1.10,2013-05-27 03:52:00,